createdAt,value
2022-11-29T00:02:09.783Z,32.65
2022-11-29T00:04:44.920Z,30.65
2022-11-29T00:07:12.397Z,28.63
2022-11-29T00:09:45.645Z,30.52
2022-11-29T00:12:12.536Z,30.23
2022-11-29T00:14:47.016Z,29.63
2022-11-29T00:17:14.270Z,29.83
2022-11-29T00:19:47.693Z,29.48
2022-11-29T00:22:20.707Z,28.42
2022-11-29T00:24:54.757Z,31.23
2022-11-29T00:27:21.819Z,31.00
2022-11-29T00:29:56.243Z,29.63
2022-11-29T00:32:29.966Z,30.27
2022-11-29T00:35:13.539Z,29.75
2022-11-29T00:37:46.710Z,29.98
2022-11-29T00:40:20.668Z,29.48
2022-11-29T00:42:47.806Z,31.38
2022-11-29T00:45:21.689Z,31.15
2022-11-29T00:47:48.717Z,29.90
2022-11-29T00:50:15.753Z,29.08
2022-11-29T00:52:48.726Z,28.70
2022-11-29T00:55:15.808Z,30.02
2022-11-29T00:57:49.765Z,32.75
2022-11-29T01:00:17.657Z,32.90
2022-11-29T01:02:57.796Z,33.22
2022-11-29T01:05:25.030Z,32.15
2022-11-29T01:07:52.087Z,32.03
2022-11-29T01:10:25.675Z,34.72
2022-11-29T01:12:59.760Z,35.33
2022-11-29T01:15:26.847Z,36.08
2022-11-29T01:17:53.848Z,34.50
2022-11-29T01:20:27.703Z,35.60
2022-11-29T01:23:01.720Z,34.38
2022-11-29T01:25:28.708Z,34.15
2022-11-29T01:28:01.715Z,30.83
2022-11-29T01:30:28.690Z,28.85
2022-11-29T01:33:01.753Z,27.52
2022-11-29T01:35:28.636Z,27.55
2022-11-29T01:37:55.516Z,27.55
2022-11-29T01:40:33.462Z,30.58
2022-11-29T01:43:00.475Z,28.92
2022-11-29T01:45:33.684Z,28.80
2022-11-29T01:48:00.758Z,31.40
2022-11-29T01:50:34.703Z,28.98
2022-11-29T01:53:01.722Z,29.25
2022-11-29T01:55:35.793Z,29.42
2022-11-29T01:58:03.598Z,28.25
2022-11-29T02:00:36.823Z,29.77
2022-11-29T02:03:15.542Z,32.38
2022-11-29T02:05:51.751Z,29.88
2022-11-29T02:08:38.087Z,32.03
2022-11-29T02:11:41.710Z,29.08
2022-11-29T02:14:26.598Z,29.75
2022-11-29T02:17:08.724Z,31.67
2022-11-29T02:19:50.715Z,30.45
2022-11-29T02:23:38.729Z,31.52
2022-11-29T02:26:50.072Z,30.33
2022-11-29T02:33:11.781Z,29.10
2022-11-29T02:36:09.940Z,26.98
2022-11-29T02:39:19.758Z,26.77
2022-11-29T02:42:18.653Z,26.23
2022-11-29T02:45:43.864Z,28.92
2022-11-29T02:48:37.013Z,27.55
2022-11-29T02:51:50.751Z,29.10
2022-11-29T02:54:56.505Z,30.42
2022-11-29T02:57:46.749Z,31.35
2022-11-29T03:00:16.095Z,32.65
2022-11-29T03:02:54.812Z,31.33
2022-11-29T03:06:24.780Z,29.02
2022-11-29T03:09:10.201Z,29.33
2022-11-29T03:12:12.792Z,29.75
2022-11-29T03:15:03.738Z,30.23
2022-11-29T03:17:40.559Z,31.27
2022-11-29T03:20:29.760Z,32.10
2022-11-29T03:23:10.157Z,32.33
2022-11-29T03:26:02.763Z,33.67
2022-11-29T03:28:37.499Z,33.58
2022-11-29T03:31:36.858Z,31.15
2022-11-29T03:34:30.005Z,28.88
2022-11-29T03:37:17.719Z,31.08
2022-11-29T03:39:44.577Z,31.23
2022-11-29T03:42:28.765Z,32.22
2022-11-29T03:45:23.067Z,32.88
2022-11-29T03:48:21.752Z,33.25
2022-11-29T03:51:19.793Z,32.35
2022-11-29T03:54:08.807Z,30.58
2022-11-29T03:56:38.453Z,30.58
2022-11-29T03:59:51.783Z,31.63
2022-11-29T04:02:40.827Z,29.27
2022-11-29T04:05:48.728Z,30.00
2022-11-29T04:09:00.800Z,30.63
2022-11-29T04:12:22.561Z,31.30
2022-11-29T04:15:15.333Z,31.58
2022-11-29T04:18:03.760Z,32.08
2022-11-29T04:20:58.784Z,30.23
2022-11-29T04:23:45.914Z,30.38
2022-11-29T04:26:41.780Z,30.42
2022-11-29T04:30:01.874Z,30.55
2022-11-29T04:32:50.765Z,29.85
2022-11-29T04:35:38.000Z,30.38
2022-11-29T04:38:32.878Z,30.52
2022-11-29T04:41:09.302Z,30.15
2022-11-29T04:43:42.803Z,28.42
2022-11-29T04:46:40.625Z,29.05
2022-11-29T04:49:30.807Z,28.98
2022-11-29T04:52:31.836Z,28.55
2022-11-29T04:55:43.805Z,29.13
2022-11-29T04:58:51.057Z,28.60
2022-11-29T05:01:35.866Z,28.23
2022-11-29T05:04:13.520Z,27.63
2022-11-29T05:07:18.811Z,27.95
2022-11-29T05:10:29.745Z,27.85
2022-11-29T05:13:40.796Z,28.75
2022-11-29T05:16:29.447Z,28.05
2022-11-29T05:19:35.757Z,29.08
2022-11-29T05:22:40.340Z,29.23
2022-11-29T05:25:47.794Z,37.05
2022-11-29T05:29:08.850Z,44.45
2022-11-29T05:31:56.833Z,40.10
2022-11-29T05:35:03.804Z,39.05
2022-11-29T05:38:03.799Z,36.55
2022-11-29T05:40:45.387Z,34.05
2022-11-29T05:43:31.760Z,35.88
2022-11-29T05:46:08.190Z,35.90
2022-11-29T05:49:07.872Z,41.13
2022-11-29T05:51:50.364Z,47.90
2022-11-29T05:54:50.813Z,51.40
2022-11-29T05:57:20.919Z,46.15
2022-11-29T05:59:48.268Z,45.38
2022-11-29T06:02:35.758Z,41.15
2022-11-29T06:05:31.868Z,41.05
2022-11-29T06:08:35.969Z,33.83
2022-11-29T06:11:30.846Z,31.95
2022-11-29T06:14:03.380Z,31.20
2022-11-29T06:17:02.943Z,29.92
2022-11-29T06:20:06.902Z,29.85
2022-11-29T06:23:05.273Z,29.30
2022-11-29T06:26:23.848Z,32.78
2022-11-29T06:29:18.007Z,29.65
2022-11-29T06:32:29.952Z,29.38
2022-11-29T06:35:38.887Z,29.60
2022-11-29T06:38:29.881Z,30.15
2022-11-29T06:41:01.847Z,31.33
2022-11-29T06:43:36.832Z,31.67
2022-11-29T06:46:10.362Z,31.52
2022-11-29T06:48:59.149Z,35.72
2022-11-29T06:51:45.775Z,42.85
2022-11-29T06:55:07.970Z,53.20
2022-11-29T06:57:48.159Z,45.90
2022-11-29T07:00:33.941Z,45.80
2022-11-29T07:03:35.684Z,39.22
2022-11-29T07:06:18.897Z,32.33
2022-11-29T07:08:45.941Z,31.48
2022-11-29T07:11:19.847Z,29.58
2022-11-29T07:13:47.191Z,37.83
2022-11-29T07:16:57.268Z,50.28
2022-11-29T07:19:37.318Z,53.60
2022-11-29T07:22:28.958Z,58.63
2022-11-29T07:25:37.285Z,56.53
2022-11-29T07:28:43.025Z,52.33
2022-11-29T07:31:40.176Z,44.33
2022-11-29T07:34:33.880Z,42.05
2022-11-29T07:37:31.693Z,38.67
2022-11-29T07:40:34.444Z,40.60
2022-11-29T07:43:38.855Z,40.80
2022-11-29T07:46:11.852Z,39.15
2022-11-29T07:48:38.735Z,38.25
2022-11-29T07:51:11.873Z,32.80
2022-11-29T07:53:43.233Z,28.33
2022-11-29T07:56:16.908Z,27.38
2022-11-29T07:58:43.887Z,27.00
2022-11-29T08:01:10.929Z,26.92
2022-11-29T08:03:44.853Z,27.08
2022-11-29T08:06:11.765Z,26.45
2022-11-29T08:08:44.874Z,27.15
2022-11-29T08:11:18.841Z,29.35
2022-11-29T08:13:45.706Z,30.35
2022-11-29T08:16:23.922Z,28.33
2022-11-29T08:18:50.826Z,29.90
2022-11-29T08:21:17.751Z,30.77
2022-11-29T08:23:52.893Z,33.08
2022-11-29T08:26:20.380Z,32.85
2022-11-29T08:28:57.864Z,29.63
2022-11-29T08:31:30.880Z,30.05
2022-11-29T08:33:57.769Z,29.40
2022-11-29T08:36:30.887Z,31.35
2022-11-29T08:39:09.322Z,31.60
2022-11-29T08:41:36.585Z,32.95
2022-11-29T08:44:11.870Z,35.75
2022-11-29T08:46:38.755Z,33.35
2022-11-29T08:49:05.592Z,34.53
2022-11-29T08:51:38.909Z,33.35
2022-11-29T08:54:05.803Z,34.63
2022-11-29T08:59:31.898Z,35.22
2022-11-29T09:01:58.843Z,34.25
2022-11-29T09:04:31.856Z,37.92
2022-11-29T09:07:04.904Z,36.50
2022-11-29T09:09:31.777Z,35.15
2022-11-29T09:12:05.218Z,35.75
2022-11-29T09:14:38.928Z,35.63
2022-11-29T09:17:05.817Z,33.90
2022-11-29T09:19:38.887Z,34.88
2022-11-29T09:22:05.845Z,35.63
2022-11-29T09:24:39.948Z,34.38
2022-11-29T09:27:12.899Z,34.03
2022-11-29T09:29:39.919Z,33.70
2022-11-29T09:32:06.905Z,33.97
2022-11-29T09:34:39.857Z,34.90
2022-11-29T09:37:06.752Z,35.25
2022-11-29T09:39:39.900Z,34.75
2022-11-29T09:42:22.885Z,35.40
2022-11-29T09:45:11.871Z,39.03
2022-11-29T09:48:26.928Z,41.97
2022-11-29T09:51:29.286Z,36.33
2022-11-29T09:54:34.946Z,34.47
2022-11-29T09:57:06.063Z,33.00
2022-11-29T09:59:49.026Z,33.78
2022-11-29T10:02:40.037Z,32.88
2022-11-29T10:05:16.972Z,31.73
2022-11-29T10:07:59.598Z,33.30
2022-11-29T10:10:53.891Z,34.97
2022-11-29T10:13:32.374Z,34.28
2022-11-29T10:16:33.020Z,32.15
2022-11-29T10:19:09.933Z,31.77
2022-11-29T10:21:44.930Z,34.22
2022-11-29T10:24:15.174Z,33.60
2022-11-29T10:26:48.990Z,32.40
2022-11-29T10:29:16.109Z,33.90
2022-11-29T10:31:45.206Z,33.50
2022-11-29T10:34:24.911Z,33.80
2022-11-29T10:36:58.418Z,34.25
2022-11-29T10:39:42.924Z,37.53
2022-11-29T10:42:18.792Z,62.15
2022-11-29T10:44:51.943Z,48.33
2022-11-29T10:47:18.842Z,37.75
2022-11-29T10:49:45.707Z,34.70
2022-11-29T10:52:27.933Z,34.63
2022-11-29T10:54:57.624Z,35.13
2022-11-29T10:57:31.969Z,38.97
2022-11-29T11:00:06.495Z,35.78
2022-11-29T11:02:39.960Z,36.47
2022-11-29T11:05:19.942Z,37.33
2022-11-29T11:07:47.194Z,35.80
2022-11-29T11:10:34.913Z,36.35
2022-11-29T11:13:17.750Z,36.75
2022-11-29T11:15:50.907Z,38.83
2022-11-29T11:18:31.313Z,39.03
2022-11-29T11:20:59.865Z,39.92
2022-11-29T11:23:42.352Z,39.50
2022-11-29T11:26:11.841Z,40.88
2022-11-29T11:28:59.932Z,39.15
2022-11-29T11:31:37.329Z,40.20
2022-11-29T11:34:36.946Z,42.55
2022-11-29T11:37:16.175Z,41.08
2022-11-29T11:39:50.028Z,42.05
2022-11-29T11:42:35.666Z,39.70
2022-11-29T11:45:17.957Z,40.45
2022-11-29T11:48:11.647Z,41.17
2022-11-29T11:50:55.977Z,42.63
2022-11-29T11:53:34.282Z,40.28
2022-11-29T11:56:11.999Z,43.65
2022-11-29T11:58:54.485Z,47.35
2022-11-29T12:01:44.934Z,46.25
2022-11-29T12:04:33.058Z,43.10
2022-11-29T12:07:59.848Z,40.35
2022-11-29T12:10:22.604Z,39.92
2022-11-29T12:12:56.143Z,40.95
2022-11-29T12:15:35.606Z,44.95
2022-11-29T12:18:19.006Z,44.40
2022-11-29T12:21:14.983Z,43.72
2022-11-29T12:24:03.031Z,41.15
2022-11-29T12:26:57.038Z,40.85
2022-11-29T12:29:30.963Z,41.30
2022-11-29T12:32:49.480Z,43.05
2022-11-29T12:35:52.982Z,41.50
2022-11-29T12:38:44.424Z,40.97
2022-11-29T12:42:01.001Z,42.00
2022-11-29T12:45:07.371Z,40.95
2022-11-29T12:47:51.853Z,41.88
2022-11-29T12:50:28.028Z,40.58
2022-11-29T12:53:27.289Z,44.10
2022-11-29T12:56:26.031Z,42.90
2022-11-29T12:59:18.019Z,44.38
2022-11-29T13:02:16.973Z,44.47
2022-11-29T13:05:18.053Z,44.63
2022-11-29T13:08:21.847Z,44.60
2022-11-29T13:11:07.028Z,44.95
2022-11-29T13:13:39.785Z,43.65
2022-11-29T13:16:39.070Z,41.58
2022-11-29T13:20:01.325Z,40.20
2022-11-29T13:22:49.010Z,41.67
2022-11-29T13:25:32.469Z,39.08
2022-11-29T13:28:40.063Z,39.47
2022-11-29T13:31:18.803Z,40.38
2022-11-29T13:34:10.116Z,40.30
2022-11-29T13:36:54.626Z,37.72
2022-11-29T13:39:56.053Z,38.83
2022-11-29T13:42:44.502Z,41.80
2022-11-29T13:46:04.169Z,41.38
2022-11-29T13:48:46.601Z,39.08
2022-11-29T13:51:41.066Z,37.80
2022-11-29T13:54:39.101Z,37.40
2022-11-29T13:57:08.081Z,37.78
2022-11-29T13:59:47.571Z,38.47
2022-11-29T14:02:30.629Z,38.63
2022-11-29T14:05:04.117Z,38.10
2022-11-29T14:07:37.125Z,38.70
2022-11-29T14:10:06.897Z,37.42
2022-11-29T14:12:57.121Z,37.47
2022-11-29T14:15:29.340Z,39.20
2022-11-29T14:18:13.118Z,38.78
2022-11-29T14:20:40.028Z,38.10
2022-11-29T14:23:13.088Z,37.40
2022-11-29T14:25:55.181Z,38.20
2022-11-29T14:28:29.100Z,37.85
2022-11-29T14:31:10.146Z,37.40
2022-11-29T14:34:09.104Z,38.08
2022-11-29T14:36:50.200Z,37.08
2022-11-29T14:39:56.061Z,40.15
2022-11-29T14:42:31.078Z,38.95
2022-11-29T14:45:06.086Z,39.65
2022-11-29T14:47:37.492Z,36.35
2022-11-29T14:50:13.031Z,36.25
2022-11-29T14:52:40.791Z,35.03
2022-11-29T14:55:23.086Z,35.25
2022-11-29T14:58:23.089Z,33.92
2022-11-29T15:00:56.181Z,32.85
2022-11-29T15:03:37.623Z,32.25
2022-11-29T15:06:23.024Z,32.70
2022-11-29T15:09:00.875Z,31.58
2022-11-29T15:11:51.067Z,32.03
2022-11-29T15:14:53.172Z,32.58
2022-11-29T15:17:42.861Z,32.03
2022-11-29T15:20:34.720Z,31.83
2022-11-29T15:23:15.240Z,32.22
2022-11-29T15:26:01.890Z,31.63
2022-11-29T15:28:36.280Z,33.33
2022-11-29T15:31:11.694Z,30.30
2022-11-29T15:33:50.269Z,32.15
2022-11-29T15:36:30.535Z,33.80
2022-11-29T15:39:07.228Z,33.20
2022-11-29T15:41:44.154Z,35.28
2022-11-29T15:44:31.343Z,31.95
2022-11-29T15:47:38.221Z,30.00
2022-11-29T15:50:09.289Z,31.60
2022-11-29T15:52:43.316Z,29.58
2022-11-29T15:55:18.213Z,29.52
2022-11-29T15:58:05.406Z,30.77
2022-11-29T16:00:35.733Z,30.63
2022-11-29T16:03:10.310Z,30.90
2022-11-29T16:05:37.916Z,30.73
2022-11-29T16:08:21.190Z,30.40
2022-11-29T16:10:50.648Z,28.20
2022-11-29T16:13:45.143Z,29.95
2022-11-29T16:16:22.281Z,31.30
2022-11-29T16:18:50.264Z,29.38
2022-11-29T16:21:38.068Z,31.45
2022-11-29T16:24:14.095Z,32.53
2022-11-29T16:26:50.085Z,33.55
2022-11-29T16:29:41.267Z,34.35
2022-11-29T16:32:42.193Z,32.67
2022-11-29T16:35:24.723Z,31.63
2022-11-29T16:37:59.180Z,30.65
2022-11-29T16:40:31.653Z,31.15
2022-11-29T16:43:11.368Z,30.13
2022-11-29T16:45:46.265Z,31.50
2022-11-29T16:48:22.913Z,31.42
2022-11-29T16:51:22.655Z,34.08
2022-11-29T16:53:56.210Z,33.20
2022-11-29T16:56:31.238Z,32.58
2022-11-29T16:59:20.879Z,33.83
2022-11-29T17:02:29.235Z,33.40
2022-11-29T17:04:53.203Z,33.67
2022-11-29T17:07:35.273Z,31.40
2022-11-29T17:10:10.441Z,31.90
2022-11-29T17:12:37.504Z,34.20
2022-11-29T17:15:11.280Z,33.65
2022-11-29T17:17:38.966Z,34.78
2022-11-29T17:20:08.041Z,35.63
2022-11-29T17:22:42.176Z,39.17
2022-11-29T17:25:16.345Z,40.08
2022-11-29T17:27:50.238Z,39.38
2022-11-29T17:30:24.304Z,39.80
2022-11-29T17:32:58.286Z,37.97
2022-11-29T17:35:29.985Z,35.88
2022-11-29T17:38:05.753Z,36.22
2022-11-29T17:40:39.940Z,34.22
2022-11-29T17:43:17.495Z,33.97
2022-11-29T17:45:44.632Z,33.90
2022-11-29T17:48:18.268Z,34.28
2022-11-29T17:50:52.253Z,34.75
2022-11-29T17:53:20.756Z,33.70
2022-11-29T17:55:54.309Z,33.45
2022-11-29T17:58:25.551Z,33.28
2022-11-29T18:00:59.299Z,33.28
2022-11-29T18:03:26.506Z,31.92
2022-11-29T18:05:53.510Z,30.90
2022-11-29T18:08:27.280Z,30.55
2022-11-29T18:11:21.205Z,31.52
2022-11-29T18:13:55.317Z,32.80
2022-11-29T18:16:28.367Z,30.00
2022-11-29T18:19:03.178Z,31.58
2022-11-29T18:21:30.636Z,29.95
2022-11-29T18:24:06.144Z,30.45
2022-11-29T18:26:34.010Z,31.60
2022-11-29T18:29:07.330Z,30.80
2022-11-29T18:31:36.781Z,30.70
2022-11-29T18:34:12.215Z,30.58
2022-11-29T18:36:41.879Z,32.17
2022-11-29T18:39:18.276Z,32.17
2022-11-29T18:41:54.439Z,30.63
2022-11-29T18:44:21.826Z,28.67
2022-11-29T18:46:55.355Z,29.48
2022-11-29T18:49:22.590Z,29.00
2022-11-29T18:51:56.221Z,30.48
2022-11-29T18:54:23.209Z,28.40
2022-11-29T18:56:57.260Z,28.40
2022-11-29T18:59:24.218Z,29.55
2022-11-29T19:01:51.254Z,28.75
2022-11-29T19:04:26.276Z,29.63
2022-11-29T19:07:00.186Z,29.73
2022-11-29T19:09:27.135Z,29.38
2022-11-29T19:12:00.335Z,30.15
2022-11-29T19:14:27.342Z,29.30
2022-11-29T19:16:54.287Z,37.15
2022-11-29T19:19:28.278Z,37.00
2022-11-29T19:21:55.277Z,37.95
2022-11-29T19:24:29.326Z,36.25
2022-11-29T19:26:56.343Z,35.05
2022-11-29T19:29:32.064Z,32.35
2022-11-29T19:32:02.226Z,31.27
2022-11-29T19:34:36.321Z,31.33
2022-11-29T19:37:03.523Z,30.30
2022-11-29T19:39:30.689Z,29.63
2022-11-29T19:42:04.296Z,29.33
2022-11-29T19:45:08.676Z,28.00
2022-11-29T19:47:25.406Z,25.52
2022-11-29T19:50:02.332Z,23.65
2022-11-29T19:52:36.283Z,24.02
2022-11-29T19:55:03.443Z,24.70
2022-11-29T19:57:30.650Z,22.88
2022-11-29T20:00:04.244Z,21.38
2022-11-29T20:02:31.989Z,23.55
2022-11-29T20:05:05.390Z,24.95
2022-11-29T20:07:32.547Z,25.55
2022-11-29T20:10:06.289Z,23.77
2022-11-29T20:12:33.716Z,22.23
2022-11-29T20:15:07.313Z,23.48
2022-11-29T20:17:34.347Z,19.20
2022-11-29T20:20:08.292Z,17.13
2022-11-29T20:22:42.274Z,16.08
2022-11-29T20:25:09.491Z,16.38
2022-11-29T20:27:43.324Z,16.08
2022-11-29T20:30:11.371Z,15.68
2022-11-29T20:32:45.326Z,14.45
2022-11-29T20:35:13.120Z,14.35
2022-11-29T20:37:46.283Z,13.55
2022-11-29T20:40:28.305Z,12.63
2022-11-29T20:44:15.006Z,12.80
2022-11-29T20:46:48.344Z,14.18
2022-11-29T20:49:15.924Z,15.23
2022-11-29T20:52:06.315Z,15.02
2022-11-29T20:54:40.269Z,15.15
2022-11-29T20:57:08.448Z,15.43
2022-11-29T20:59:35.471Z,16.45
2022-11-29T21:02:09.266Z,16.27
2022-11-29T21:04:43.374Z,16.65
2022-11-29T21:07:10.545Z,16.23
2022-11-29T21:09:37.512Z,17.25
2022-11-29T21:12:11.332Z,17.13
2022-11-29T21:14:38.876Z,19.58
2022-11-29T21:17:13.234Z,18.45
2022-11-29T21:19:40.570Z,17.63
2022-11-29T21:23:19.334Z,18.25
2022-11-29T21:25:58.499Z,18.60
2022-11-29T21:28:42.795Z,20.23
2022-11-29T21:31:11.789Z,20.20
2022-11-29T21:33:46.396Z,22.33
2022-11-29T21:36:13.535Z,22.55
2022-11-29T21:38:52.341Z,23.50
2022-11-29T21:41:28.316Z,25.55
2022-11-29T21:44:06.399Z,27.42
2022-11-29T21:46:41.413Z,30.83
2022-11-29T21:49:08.666Z,33.13
2022-11-29T21:51:42.306Z,33.97
2022-11-29T21:54:09.688Z,35.17
2022-11-29T21:56:43.332Z,35.05
2022-11-29T21:59:10.639Z,34.83
2022-11-29T22:01:44.465Z,33.20
2022-11-29T22:04:18.336Z,33.10
2022-11-29T22:06:45.442Z,30.17
2022-11-29T22:09:19.352Z,32.45
2022-11-29T22:11:46.361Z,30.17
2022-11-29T22:14:22.338Z,28.83
2022-11-29T22:17:00.044Z,29.33
2022-11-29T22:19:41.309Z,28.73
2022-11-29T22:22:08.344Z,30.98
2022-11-29T22:24:36.304Z,29.42
2022-11-29T22:27:10.399Z,29.45
2022-11-29T22:29:44.306Z,30.80
2022-11-29T22:32:18.397Z,29.90
2022-11-29T22:34:45.736Z,30.17
2022-11-29T22:37:19.403Z,28.85
2022-11-29T22:39:46.511Z,29.52
2022-11-29T22:42:13.601Z,29.77
2022-11-29T22:44:47.669Z,29.20
2022-11-29T22:47:14.759Z,29.17
2022-11-29T22:49:48.286Z,30.02
2022-11-29T22:52:15.248Z,29.80
2022-11-29T22:54:48.543Z,29.90
2022-11-29T22:57:22.314Z,30.15
2022-11-29T22:59:49.385Z,29.52
2022-11-29T23:02:23.431Z,30.42
2022-11-29T23:04:57.292Z,32.13
2022-11-29T23:07:30.339Z,31.25
2022-11-29T23:10:04.528Z,32.63
2022-11-29T23:12:31.828Z,32.35
2022-11-29T23:15:05.369Z,30.70
2022-11-29T23:17:32.447Z,31.70
2022-11-29T23:20:06.364Z,31.17
2022-11-29T23:22:33.333Z,30.52
2022-11-29T23:25:07.355Z,31.70
2022-11-29T23:27:34.436Z,29.92
2022-11-29T23:30:10.201Z,30.75
2022-11-29T23:32:37.384Z,29.00
2022-11-29T23:35:04.662Z,31.25
2022-11-29T23:37:41.712Z,30.77
2022-11-29T23:40:09.939Z,31.08
2022-11-29T23:42:52.001Z,30.92
2022-11-29T23:45:32.498Z,31.35
2022-11-29T23:48:06.418Z,29.70
2022-11-29T23:50:33.678Z,29.92
2022-11-29T23:53:13.034Z,29.75
2022-11-29T23:55:40.556Z,31.23
2022-11-29T23:58:14.452Z,29.27
